createdAt,value
2023-01-21T00:01:11.851Z,100169.94
2023-01-21T00:03:39.741Z,100176.22
2023-01-21T00:06:08.151Z,100170.66
2023-01-21T00:08:35.912Z,100171.44
2023-01-21T00:11:12.124Z,100149.59
2023-01-21T00:13:39.746Z,100173.31
2023-01-21T00:16:07.901Z,100168.50
2023-01-21T00:18:35.761Z,100176.69
2023-01-21T00:21:03.479Z,100175.50
2023-01-21T00:23:31.089Z,100163.16
2023-01-21T00:26:04.152Z,100145.88
2023-01-21T00:28:34.146Z,100167.38
2023-01-21T00:31:03.998Z,100171.22
2023-01-21T00:33:33.225Z,100176.00
2023-01-21T00:36:09.852Z,100164.47
2023-01-21T00:38:38.149Z,100168.41
2023-01-21T00:41:07.044Z,100173.97
2023-01-21T00:43:35.189Z,100180.09
2023-01-21T00:46:03.039Z,100170.94
2023-01-21T00:48:30.687Z,100180.03
2023-01-21T00:51:01.944Z,100168.50
2023-01-21T00:53:31.837Z,100178.41
2023-01-21T00:56:04.743Z,100180.25
2023-01-21T00:58:32.911Z,100186.94
2023-01-21T01:01:05.557Z,100191.47
2023-01-21T01:03:34.023Z,100191.22
2023-01-21T01:06:09.045Z,100192.25
2023-01-21T01:08:36.677Z,100194.84
2023-01-21T01:11:05.166Z,100195.66
2023-01-21T01:13:34.894Z,100201.94
2023-01-21T01:16:02.986Z,100195.88
2023-01-21T01:18:34.183Z,100202.41
2023-01-21T01:21:02.764Z,100209.09
2023-01-21T01:23:30.546Z,100201.84
2023-01-21T01:26:04.944Z,100200.63
2023-01-21T01:28:33.368Z,100205.13
2023-01-21T01:31:01.403Z,100209.66
2023-01-21T01:33:32.026Z,100212.41
2023-01-21T01:36:08.828Z,100217.06
2023-01-21T01:38:37.009Z,100216.91
2023-01-21T01:41:04.970Z,100218.50
2023-01-21T01:43:57.764Z,100214.94
2023-01-21T01:46:39.970Z,100218.47
2023-01-21T01:49:17.407Z,100174.50
2023-01-21T01:51:52.049Z,100223.81
2023-01-21T01:54:35.133Z,100217.50
2023-01-21T01:57:06.969Z,100206.28
2023-01-21T01:59:35.278Z,100208.69
2023-01-21T02:02:08.337Z,100204.22
2023-01-21T02:04:43.461Z,100205.41
2023-01-21T02:07:11.191Z,100200.59
2023-01-21T02:09:38.887Z,100199.75
2023-01-21T02:12:07.575Z,100192.88
2023-01-21T02:14:43.040Z,100187.06
2023-01-21T02:17:55.569Z,100196.34
2023-01-21T02:20:23.552Z,100196.47
2023-01-21T02:23:03.342Z,100195.00
2023-01-21T02:25:49.053Z,100192.00
2023-01-21T02:28:54.759Z,100186.84
2023-01-21T02:31:28.424Z,100187.88
2023-01-21T02:34:02.084Z,100194.06
2023-01-21T02:36:35.223Z,100183.69
2023-01-21T02:39:25.179Z,100188.59
2023-01-21T02:42:07.119Z,100187.78
2023-01-21T02:45:01.144Z,100179.00
2023-01-21T02:47:40.984Z,100184.63
2023-01-21T02:50:28.866Z,100186.88
2023-01-21T02:53:02.696Z,100191.66
2023-01-21T02:55:43.453Z,100172.38
2023-01-21T02:58:15.131Z,100169.22
2023-01-21T03:00:52.388Z,100190.34
2023-01-21T03:03:36.856Z,100201.94
2023-01-21T03:06:35.257Z,100182.41
2023-01-21T03:09:27.039Z,100195.13
2023-01-21T03:12:10.425Z,100197.28
2023-01-21T03:15:12.443Z,100204.03
2023-01-21T03:17:50.099Z,100195.22
2023-01-21T03:20:27.852Z,100208.59
2023-01-21T03:23:08.524Z,100205.72
2023-01-21T03:25:38.227Z,100205.66
2023-01-21T03:28:12.002Z,100211.38
2023-01-21T03:30:44.531Z,100208.50
2023-01-21T03:33:14.751Z,100206.28
2023-01-21T03:35:46.098Z,100210.38
2023-01-21T03:38:38.668Z,100210.59
2023-01-21T03:41:15.862Z,100216.00
2023-01-21T03:43:43.673Z,100216.00
2023-01-21T03:46:22.052Z,100220.84
2023-01-21T03:49:03.359Z,100210.16
2023-01-21T03:51:36.836Z,100215.03
2023-01-21T03:54:04.434Z,100210.50
2023-01-21T03:56:31.948Z,100219.78
2023-01-21T03:58:59.467Z,100220.41
2023-01-21T04:01:27.124Z,100220.72
2023-01-21T04:03:54.674Z,100221.69
2023-01-21T04:06:23.721Z,100223.38
2023-01-21T04:08:51.280Z,100216.38
2023-01-21T04:11:18.844Z,100212.91
2023-01-21T04:13:46.404Z,100228.09
2023-01-21T04:16:14.137Z,100226.47
2023-01-21T04:18:41.844Z,100229.41
2023-01-21T04:21:09.390Z,100225.47
2023-01-21T04:23:36.895Z,100228.53
2023-01-21T04:26:04.590Z,100234.66
2023-01-21T04:28:32.242Z,100233.91
2023-01-21T04:31:00.304Z,100244.94
2023-01-21T04:33:27.999Z,100241.66
2023-01-21T04:36:00.025Z,100240.41
2023-01-21T04:38:27.857Z,100227.00
2023-01-21T04:40:55.317Z,100233.81
2023-01-21T04:43:22.954Z,100241.28
2023-01-21T04:45:50.631Z,100230.81
2023-01-21T04:48:18.305Z,100246.91
2023-01-21T04:50:47.400Z,100250.66
2023-01-21T04:53:14.953Z,100248.63
2023-01-21T04:55:42.657Z,100238.44
2023-01-21T04:58:10.170Z,100253.22
2023-01-21T05:00:37.908Z,100232.38
2023-01-21T05:03:05.370Z,100245.47
2023-01-21T05:05:32.840Z,100234.53
2023-01-21T05:08:00.442Z,100243.13
2023-01-21T05:10:27.984Z,100234.31
2023-01-21T05:12:55.531Z,100236.75
2023-01-21T05:15:23.520Z,100249.09
2023-01-21T05:17:51.362Z,100220.72
2023-01-21T05:20:19.537Z,100222.03
2023-01-21T05:22:49.487Z,100203.28
2023-01-21T05:25:24.797Z,100211.13
2023-01-21T05:27:54.553Z,100218.72
2023-01-21T05:30:32.791Z,100227.00
2023-01-21T05:33:03.392Z,100224.13
2023-01-21T05:35:36.053Z,100230.66
2023-01-21T05:38:03.830Z,100228.06
2023-01-21T05:40:31.378Z,100247.53
2023-01-21T05:42:59.040Z,100239.03
2023-01-21T05:45:26.560Z,100258.06
2023-01-21T05:47:54.278Z,100238.50
2023-01-21T05:50:21.794Z,100251.78
2023-01-21T05:52:49.289Z,100239.22
2023-01-21T05:55:16.896Z,100248.63
2023-01-21T05:57:44.363Z,100240.53
2023-01-21T06:00:12.413Z,100237.31
2023-01-21T06:02:39.947Z,100243.00
2023-01-21T06:05:07.808Z,100244.41
2023-01-21T06:07:35.311Z,100245.63
2023-01-21T06:10:02.859Z,100250.31
2023-01-21T06:12:30.711Z,100232.09
2023-01-21T06:14:59.633Z,100239.09
2023-01-21T06:17:27.111Z,100240.00
2023-01-21T06:19:54.926Z,100244.38
2023-01-21T06:22:22.502Z,100238.59
2023-01-21T06:24:50.023Z,100242.59
2023-01-21T06:27:17.448Z,100246.38
2023-01-21T06:29:44.975Z,100244.69
2023-01-21T06:32:12.604Z,100249.06
2023-01-21T06:34:40.208Z,100244.63
2023-01-21T06:37:07.847Z,100233.50
2023-01-21T06:39:39.173Z,100248.50
2023-01-21T06:42:09.276Z,100251.44
2023-01-21T06:44:36.844Z,100239.22
2023-01-21T06:47:05.318Z,100241.63
2023-01-21T06:49:33.164Z,100227.44
2023-01-21T06:52:05.858Z,100233.94
2023-01-21T06:54:55.968Z,100227.25
2023-01-21T06:57:26.271Z,100228.75
2023-01-21T06:59:58.543Z,100219.69
2023-01-21T07:02:31.026Z,100216.91
2023-01-21T07:05:12.589Z,100226.25
2023-01-21T07:07:42.003Z,100225.91
2023-01-21T07:10:19.588Z,100230.69
2023-01-21T07:12:49.623Z,100221.09
2023-01-21T07:15:17.907Z,100230.03
2023-01-21T07:17:45.833Z,100228.03
2023-01-21T07:20:13.681Z,100232.25
2023-01-21T07:22:41.316Z,100221.19
2023-01-21T07:25:09.586Z,100222.25
2023-01-21T07:27:37.584Z,100202.66
2023-01-21T07:30:06.880Z,100212.03
2023-01-21T07:32:37.490Z,100203.44
2023-01-21T07:35:05.675Z,100189.16
2023-01-21T07:37:33.759Z,100200.72
2023-01-21T07:40:01.422Z,100204.09
2023-01-21T07:42:29.179Z,100215.28
2023-01-21T07:44:57.712Z,100208.69
2023-01-21T07:47:25.688Z,100206.59
2023-01-21T07:49:53.430Z,100199.41
2023-01-21T07:52:23.787Z,100200.97
2023-01-21T07:54:51.619Z,100201.75
2023-01-21T07:57:31.937Z,100206.25
2023-01-21T08:00:04.857Z,100186.91
2023-01-21T08:02:41.586Z,100193.63
2023-01-21T08:05:10.247Z,100201.59
2023-01-21T08:07:37.984Z,100192.19
2023-01-21T08:10:20.178Z,100179.06
2023-01-21T08:12:48.027Z,100173.19
2023-01-21T08:15:15.919Z,100188.53
2023-01-21T08:17:45.070Z,100194.66
2023-01-21T08:20:13.119Z,100194.34
2023-01-21T08:22:40.617Z,100191.91
2023-01-21T08:25:08.815Z,100175.00
2023-01-21T08:27:36.408Z,100179.28
2023-01-21T08:30:04.508Z,100207.72
2023-01-21T08:32:32.148Z,100174.78
2023-01-21T08:34:59.745Z,100194.66
2023-01-21T08:37:27.255Z,100185.16
2023-01-21T08:39:54.681Z,100183.03
2023-01-21T08:42:22.217Z,100192.38
2023-01-21T08:44:51.336Z,100185.38
2023-01-21T08:47:19.056Z,100189.50
2023-01-21T08:49:46.604Z,100183.66
2023-01-21T08:52:17.444Z,100175.97
2023-01-21T08:54:45.338Z,100183.44
2023-01-21T08:57:13.108Z,100191.06
2023-01-21T08:59:40.747Z,100179.88
2023-01-21T09:02:10.815Z,100195.22
2023-01-21T09:04:38.433Z,100183.34
2023-01-21T09:07:05.980Z,100196.22
2023-01-21T09:09:33.731Z,100192.28
2023-01-21T09:12:01.358Z,100205.75
2023-01-21T09:14:29.403Z,100204.13
2023-01-21T09:16:57.099Z,100203.44
2023-01-21T09:19:25.494Z,100209.41
2023-01-21T09:21:54.718Z,100160.72
2023-01-21T09:24:22.532Z,100193.84
2023-01-21T09:26:49.999Z,100192.97
2023-01-21T09:29:17.585Z,100186.44
2023-01-21T09:31:45.342Z,100184.09
2023-01-21T09:34:12.973Z,100191.41
2023-01-21T09:36:40.915Z,100179.41
2023-01-21T09:39:08.797Z,100190.34
2023-01-21T09:41:46.337Z,100190.31
2023-01-21T09:44:29.077Z,100190.75
2023-01-21T09:47:15.353Z,100186.84
2023-01-21T09:49:53.255Z,100186.16
2023-01-21T09:52:35.654Z,100185.41
2023-01-21T09:55:05.227Z,100178.88
2023-01-21T09:58:14.691Z,100170.22
2023-01-21T10:01:00.824Z,100184.78
2023-01-21T10:03:49.835Z,100186.88
2023-01-21T10:06:19.945Z,100186.00
2023-01-21T10:09:05.671Z,100180.75
2023-01-21T10:11:36.020Z,100175.00
2023-01-21T10:14:36.711Z,100177.84
2023-01-21T10:17:06.905Z,100175.03
2023-01-21T10:19:48.638Z,100179.63
2023-01-21T10:22:27.388Z,100179.13
2023-01-21T10:25:03.395Z,100188.81
2023-01-21T10:27:35.753Z,100188.28
2023-01-21T10:30:20.255Z,100187.84
2023-01-21T10:32:51.444Z,100198.06
2023-01-21T10:35:21.357Z,100207.00
2023-01-21T10:38:13.940Z,100200.56
2023-01-21T10:40:54.008Z,100197.66
2023-01-21T10:43:42.042Z,100200.56
2023-01-21T10:46:41.520Z,100187.47
2023-01-21T10:49:40.624Z,100193.41
2023-01-21T10:52:16.236Z,100201.19
2023-01-21T10:55:20.559Z,100183.75
2023-01-21T10:58:00.699Z,100190.78
2023-01-21T11:00:44.913Z,100179.00
2023-01-21T11:03:22.683Z,100179.31
2023-01-21T11:05:50.411Z,100169.44
2023-01-21T11:08:23.375Z,100178.25
2023-01-21T11:10:56.497Z,100164.59
2023-01-21T11:13:24.494Z,100170.28
2023-01-21T11:15:58.200Z,100169.47
2023-01-21T11:18:37.285Z,100166.78
2023-01-21T11:21:23.874Z,100173.75
2023-01-21T11:24:06.701Z,100164.91
2023-01-21T11:26:36.374Z,100164.38
2023-01-21T11:29:16.682Z,100162.50
2023-01-21T11:31:51.066Z,100174.53
2023-01-21T11:34:23.724Z,100178.53
2023-01-21T11:36:59.952Z,100177.19
2023-01-21T11:39:30.392Z,100179.06
2023-01-21T11:42:03.357Z,100186.53
2023-01-21T11:44:31.285Z,100190.53
2023-01-21T11:46:58.788Z,100181.94
2023-01-21T11:49:32.103Z,100184.88
2023-01-21T11:52:18.565Z,100190.53
2023-01-21T11:54:46.982Z,100190.16
2023-01-21T11:57:26.244Z,100193.19
2023-01-21T11:59:58.640Z,100180.81
2023-01-21T12:02:31.582Z,100170.31
2023-01-21T12:05:10.191Z,100179.44
2023-01-21T12:07:42.819Z,100181.34
2023-01-21T12:10:13.543Z,100180.03
2023-01-21T12:12:41.191Z,100177.59
2023-01-21T12:15:41.089Z,100181.13
2023-01-21T12:18:34.931Z,100177.88
2023-01-21T12:21:11.924Z,100182.34
2023-01-21T12:24:16.015Z,100170.66
2023-01-21T12:26:46.288Z,100170.06
2023-01-21T12:29:38.824Z,100169.56
2023-01-21T12:32:28.292Z,100165.78
2023-01-21T12:35:09.548Z,100163.06
2023-01-21T12:37:49.218Z,100159.19
2023-01-21T12:40:27.943Z,100165.56
2023-01-21T12:43:02.831Z,100165.31
2023-01-21T12:45:43.862Z,100164.56
2023-01-21T12:48:22.215Z,100165.97
2023-01-21T12:50:59.253Z,100173.22
2023-01-21T12:53:42.215Z,100168.69
2023-01-21T12:56:33.330Z,100168.16
2023-01-21T12:59:13.566Z,100136.53
2023-01-21T13:02:06.483Z,100170.91
2023-01-21T13:04:44.283Z,100161.22
2023-01-21T13:07:49.243Z,100166.31
2023-01-21T13:10:42.539Z,100167.09
2023-01-21T13:13:19.986Z,100161.94
2023-01-21T13:15:53.185Z,100153.22
2023-01-21T13:18:28.406Z,100158.91
2023-01-21T13:21:03.904Z,100161.06
2023-01-21T13:23:42.908Z,100154.94
2023-01-21T13:26:18.952Z,100148.44
2023-01-21T13:29:00.106Z,100137.81
2023-01-21T13:31:59.778Z,100149.34
2023-01-21T13:34:39.317Z,100142.25
2023-01-21T13:37:25.583Z,100142.94
2023-01-21T13:40:11.592Z,100141.63
2023-01-21T13:43:15.115Z,100125.09
2023-01-21T13:45:48.491Z,100131.09
2023-01-21T13:48:21.946Z,100112.56
2023-01-21T13:51:04.536Z,100112.59
2023-01-21T13:54:26.003Z,100116.38
2023-01-21T13:57:28.697Z,100111.50
2023-01-21T14:00:19.512Z,100110.81
2023-01-21T14:03:08.633Z,100108.06
2023-01-21T14:05:43.086Z,100103.72
2023-01-21T14:08:20.662Z,100113.09
2023-01-21T14:10:55.931Z,100096.53
2023-01-21T14:13:47.863Z,100095.00
2023-01-21T14:16:41.167Z,100110.19
2023-01-21T14:19:38.117Z,100100.31
2023-01-21T14:22:16.463Z,100083.84
2023-01-21T14:25:02.576Z,100096.22
2023-01-21T14:28:07.743Z,100100.88
2023-01-21T14:30:43.880Z,100099.81
2023-01-21T14:33:22.710Z,100086.44
2023-01-21T14:36:02.807Z,100082.38
2023-01-21T14:38:46.588Z,100059.94
2023-01-21T14:41:14.164Z,100091.75
2023-01-21T14:43:42.224Z,100078.66
2023-01-21T14:46:24.520Z,100086.66
2023-01-21T14:49:09.498Z,100078.56
2023-01-21T14:51:43.525Z,100094.09
2023-01-21T14:54:18.208Z,100080.69
2023-01-21T14:57:01.761Z,100084.72
2023-01-21T14:59:42.009Z,100070.91
2023-01-21T15:02:37.670Z,100069.69
2023-01-21T15:05:22.334Z,100085.50
2023-01-21T15:08:00.207Z,100074.06
2023-01-21T15:10:34.368Z,100073.69
2023-01-21T15:13:05.875Z,100076.56
2023-01-21T15:15:37.201Z,100075.78
2023-01-21T15:18:10.798Z,100079.03
2023-01-21T15:20:50.100Z,100077.81
2023-01-21T15:23:19.144Z,100079.69
2023-01-21T15:26:03.926Z,100083.44
2023-01-21T15:28:58.368Z,100085.00
2023-01-21T15:31:25.937Z,100083.84
2023-01-21T15:33:59.352Z,100091.94
2023-01-21T15:36:35.033Z,100093.94
2023-01-21T15:39:13.578Z,100101.31
2023-01-21T15:41:54.661Z,100091.81
2023-01-21T15:44:50.563Z,100084.66
2023-01-21T15:47:51.907Z,100091.06
2023-01-21T15:50:30.654Z,100074.44
2023-01-21T15:53:17.894Z,100085.97
2023-01-21T15:56:14.666Z,100101.22
2023-01-21T15:59:06.638Z,100084.84
2023-01-21T16:01:37.571Z,100082.69
2023-01-21T16:04:41.726Z,100088.38
2023-01-21T16:07:46.139Z,100076.66
2023-01-21T16:10:36.922Z,100083.09
2023-01-21T16:13:29.618Z,100068.09
2023-01-21T16:16:26.046Z,100070.19
2023-01-21T16:19:19.467Z,100073.94
2023-01-21T16:21:51.424Z,100066.97
2023-01-21T16:24:24.550Z,100076.56
2023-01-21T16:26:52.269Z,100071.72
2023-01-21T16:29:19.954Z,100084.75
2023-01-21T16:32:00.103Z,100077.91
2023-01-21T16:34:36.672Z,100081.63
2023-01-21T16:37:10.683Z,100068.44
2023-01-21T16:39:38.301Z,100071.41
2023-01-21T16:42:07.614Z,100085.06
2023-01-21T16:44:36.039Z,100078.94
2023-01-21T16:47:04.128Z,100076.03
2023-01-21T16:49:31.743Z,100087.56
2023-01-21T16:52:03.391Z,100082.25
2023-01-21T16:54:33.575Z,100077.47
2023-01-21T16:57:01.100Z,100074.69
2023-01-21T16:59:39.881Z,100070.72
2023-01-21T17:02:21.013Z,100073.22
2023-01-21T17:04:49.172Z,100077.16
2023-01-21T17:07:24.846Z,100091.91
2023-01-21T17:10:01.408Z,100085.22
2023-01-21T17:12:34.083Z,100083.09
2023-01-21T17:15:17.663Z,100083.38
2023-01-21T17:17:46.355Z,100077.75
2023-01-21T17:20:38.542Z,100078.38
2023-01-21T17:23:20.231Z,100079.13
2023-01-21T17:25:56.071Z,100071.66
2023-01-21T17:28:37.757Z,100082.63
2023-01-21T17:31:23.257Z,100063.06
2023-01-21T17:34:07.372Z,100082.88
2023-01-21T17:36:37.456Z,100087.13
2023-01-21T17:39:08.028Z,100076.16
2023-01-21T17:41:38.177Z,100072.97
2023-01-21T17:44:16.073Z,100066.84
2023-01-21T17:46:49.152Z,100066.81
2023-01-21T17:49:23.619Z,100064.66
2023-01-21T17:51:54.760Z,100069.94
2023-01-21T17:54:23.756Z,100071.78
2023-01-21T17:56:59.023Z,100078.75
2023-01-21T17:59:45.866Z,100075.09
2023-01-21T18:02:13.443Z,100084.88
2023-01-21T18:04:41.239Z,100078.41
2023-01-21T18:07:26.615Z,100077.69
2023-01-21T18:09:59.165Z,100080.03
2023-01-21T18:12:26.674Z,100087.19
2023-01-21T18:14:54.267Z,100085.28
2023-01-21T18:17:25.249Z,100067.44
2023-01-21T18:19:54.044Z,100074.63
2023-01-21T18:22:25.092Z,100071.69
2023-01-21T18:24:52.778Z,100081.31
2023-01-21T18:27:25.654Z,100066.31
2023-01-21T18:29:53.867Z,100074.88
2023-01-21T18:32:21.533Z,100065.81
2023-01-21T18:34:49.062Z,100072.84
2023-01-21T18:37:18.899Z,100076.50
2023-01-21T18:39:47.180Z,100074.88
2023-01-21T18:42:16.487Z,100073.28
2023-01-21T18:44:44.833Z,100075.38
2023-01-21T18:47:17.975Z,100057.69
2023-01-21T18:49:49.605Z,100072.13
2023-01-21T18:52:19.470Z,100063.69
2023-01-21T18:54:47.183Z,100067.19
2023-01-21T18:57:18.019Z,100067.19
2023-01-21T18:59:45.471Z,100078.38
2023-01-21T19:02:16.191Z,100073.34
2023-01-21T19:04:44.554Z,100048.66
2023-01-21T19:07:19.701Z,100077.03
2023-01-21T19:09:49.437Z,100068.75
2023-01-21T19:12:18.949Z,100075.44
2023-01-21T19:14:46.628Z,100064.75
2023-01-21T19:17:16.432Z,100074.94
2023-01-21T19:19:44.018Z,100052.16
2023-01-21T19:22:15.450Z,100066.94
2023-01-21T19:24:43.234Z,100058.81
2023-01-21T19:27:26.903Z,100062.28
2023-01-21T19:29:54.689Z,100070.31
2023-01-21T19:32:22.612Z,100065.28
2023-01-21T19:34:50.070Z,100071.47
2023-01-21T19:37:24.114Z,100076.31
2023-01-21T19:39:51.652Z,100061.00
2023-01-21T19:42:19.159Z,100065.69
2023-01-21T19:44:46.765Z,100058.69
2023-01-21T19:47:19.682Z,100062.19
2023-01-21T19:49:48.027Z,100057.16
2023-01-21T19:52:15.579Z,100050.25
2023-01-21T19:54:43.054Z,100050.56
2023-01-21T19:57:15.269Z,100047.09
2023-01-21T19:59:44.734Z,100052.13
2023-01-21T20:02:12.987Z,100053.22
2023-01-21T20:04:40.718Z,100047.09
2023-01-21T20:07:15.045Z,100047.66
2023-01-21T20:09:42.896Z,100036.38
2023-01-21T20:12:13.691Z,100040.66
2023-01-21T20:14:41.341Z,100044.69
2023-01-21T20:17:13.249Z,100043.84
2023-01-21T20:19:41.189Z,100044.88
2023-01-21T20:22:08.773Z,100054.84
2023-01-21T20:24:36.292Z,100039.56
2023-01-21T20:27:08.641Z,100033.41
2023-01-21T20:29:44.441Z,100037.16
2023-01-21T20:32:11.944Z,100042.06
2023-01-21T20:34:42.494Z,100041.06
2023-01-21T20:37:14.107Z,100036.72
2023-01-21T20:39:41.842Z,100029.75
2023-01-21T20:42:12.395Z,100041.00
2023-01-21T20:44:40.219Z,100026.78
2023-01-21T20:47:11.620Z,100027.13
2023-01-21T20:49:39.272Z,100036.16
2023-01-21T20:52:11.074Z,100042.31
2023-01-21T20:54:38.798Z,100039.66
2023-01-21T20:57:15.368Z,100031.38
2023-01-21T20:59:42.846Z,100021.97
2023-01-21T21:02:12.474Z,100027.31
2023-01-21T21:04:40.386Z,100030.22
2023-01-21T21:07:16.251Z,100022.03
2023-01-21T21:09:43.843Z,100027.50
2023-01-21T21:12:11.307Z,100009.84
2023-01-21T21:14:38.906Z,100022.72
2023-01-21T21:17:12.087Z,100027.84
2023-01-21T21:19:39.588Z,100023.09
2023-01-21T21:22:07.446Z,100039.19
2023-01-21T21:24:35.002Z,100043.38
2023-01-21T21:27:03.861Z,100028.25
2023-01-21T21:29:31.466Z,100045.06
2023-01-21T21:32:02.520Z,100030.38
2023-01-21T21:34:30.245Z,100027.97
2023-01-21T21:36:57.900Z,100033.63
2023-01-21T21:39:26.316Z,100055.53
2023-01-21T21:42:12.621Z,100038.59
2023-01-21T21:44:44.814Z,100032.03
2023-01-21T21:47:31.137Z,100047.41
2023-01-21T21:50:04.374Z,100040.13
2023-01-21T21:52:33.170Z,100030.97
2023-01-21T21:55:00.875Z,100028.56
2023-01-21T21:57:30.495Z,100027.81
2023-01-21T21:59:58.081Z,100032.47
2023-01-21T22:02:25.626Z,100032.84
2023-01-21T22:04:55.220Z,100032.91
2023-01-21T22:07:22.687Z,100029.03
2023-01-21T22:09:50.185Z,100034.81
2023-01-21T22:12:17.859Z,100024.97
2023-01-21T22:14:45.368Z,100017.53
2023-01-21T22:17:12.853Z,100014.78
2023-01-21T22:19:40.387Z,100017.97
2023-01-21T22:22:07.875Z,100016.59
2023-01-21T22:24:35.459Z,100019.03
2023-01-21T22:27:03.083Z,100026.06
2023-01-21T22:29:30.562Z,100009.53
2023-01-21T22:31:58.197Z,100018.94
2023-01-21T22:34:25.748Z,100006.16
2023-01-21T22:36:53.290Z,100015.25
2023-01-21T22:39:21.113Z,100023.50
2023-01-21T22:41:48.627Z,100009.19
2023-01-21T22:44:16.214Z,100016.41
2023-01-21T22:46:43.859Z,100010.19
2023-01-21T22:49:12.471Z,100010.06
2023-01-21T22:51:40.062Z,100017.72
2023-01-21T22:54:07.972Z,100010.69
2023-01-21T22:56:51.136Z,100002.94
2023-01-21T22:59:19.509Z,100009.31
2023-01-21T23:01:48.966Z,100006.66
2023-01-21T23:04:17.677Z,100005.44
2023-01-21T23:06:45.537Z,99997.41
2023-01-21T23:09:15.599Z,100011.19
2023-01-21T23:11:45.369Z,100006.19
2023-01-21T23:14:13.216Z,100011.25
2023-01-21T23:16:40.960Z,100019.50
2023-01-21T23:19:08.470Z,100008.88
2023-01-21T23:21:37.966Z,100011.59
2023-01-21T23:24:06.872Z,99980.28
2023-01-21T23:26:34.567Z,100017.78
2023-01-21T23:29:02.141Z,100005.81
2023-01-21T23:31:29.733Z,99997.22
2023-01-21T23:33:57.499Z,100006.00
2023-01-21T23:36:25.010Z,100010.19
2023-01-21T23:38:52.715Z,100007.50
2023-01-21T23:41:21.335Z,100014.00
2023-01-21T23:43:48.908Z,100007.38
2023-01-21T23:46:19.719Z,100019.06
2023-01-21T23:48:47.786Z,99994.25
2023-01-21T23:51:18.608Z,100025.78
2023-01-21T23:53:51.790Z,100022.09
2023-01-21T23:56:26.561Z,100007.41
2023-01-21T23:58:54.456Z,100014.09
